createdAt,value
2023-01-28T00:01:27.950Z,102795.06
2023-01-28T00:03:54.592Z,102794.19
2023-01-28T00:06:21.463Z,102790.72
2023-01-28T00:08:48.525Z,102801.47
2023-01-28T00:11:15.308Z,102793.44
2023-01-28T00:13:42.235Z,102796.91
2023-01-28T00:16:10.146Z,102802.16
2023-01-28T00:18:37.693Z,102809.22
2023-01-28T00:21:08.340Z,102803.09
2023-01-28T00:23:37.418Z,102801.31
2023-01-28T00:26:07.824Z,102807.66
2023-01-28T00:28:35.087Z,102794.31
2023-01-28T00:31:30.739Z,102800.63
2023-01-28T00:33:57.944Z,102797.91
2023-01-28T00:36:26.778Z,102802.38
2023-01-28T00:38:56.072Z,102805.06
2023-01-28T00:41:24.943Z,102806.94
2023-01-28T00:43:52.826Z,102811.56
2023-01-28T00:46:20.652Z,102812.47
2023-01-28T00:48:48.669Z,102816.13
2023-01-28T00:51:18.413Z,102818.84
2023-01-28T00:53:45.198Z,102822.47
2023-01-28T00:56:17.873Z,102813.63
2023-01-28T00:58:44.734Z,102829.63
2023-01-28T01:01:17.825Z,102830.56
2023-01-28T01:03:45.143Z,102819.00
2023-01-28T01:06:13.616Z,102824.41
2023-01-28T01:08:42.812Z,102814.63
2023-01-28T01:11:11.723Z,102820.84
2023-01-28T01:13:38.750Z,102812.00
2023-01-28T01:16:11.294Z,102805.81
2023-01-28T01:18:42.556Z,102808.63
2023-01-28T01:21:14.499Z,102820.28
2023-01-28T01:23:41.305Z,102820.28
2023-01-28T01:26:08.386Z,102822.06
2023-01-28T01:28:35.318Z,102820.31
2023-01-28T01:31:05.035Z,102817.69
2023-01-28T01:33:33.478Z,102820.41
2023-01-28T01:36:00.465Z,102814.19
2023-01-28T01:38:28.705Z,102812.50
2023-01-28T01:41:00.230Z,102819.69
2023-01-28T01:43:47.487Z,102821.53
2023-01-28T01:46:19.807Z,102824.16
2023-01-28T01:48:46.771Z,102827.75
2023-01-28T01:51:19.006Z,102834.00
2023-01-28T01:53:48.107Z,102831.31
2023-01-28T01:56:19.158Z,102829.47
2023-01-28T01:58:50.381Z,102832.16
2023-01-28T02:01:21.220Z,102821.50
2023-01-28T02:03:53.126Z,102830.47
2023-01-28T02:06:21.285Z,102821.63
2023-01-28T02:08:47.826Z,102823.47
2023-01-28T02:11:14.982Z,102826.16
2023-01-28T02:13:49.601Z,102822.63
2023-01-28T02:16:16.883Z,102837.75
2023-01-28T02:18:44.770Z,102836.00
2023-01-28T02:21:31.653Z,102834.31
2023-01-28T02:24:19.130Z,102834.28
2023-01-28T02:27:31.405Z,102829.88
2023-01-28T02:30:22.566Z,102828.09
2023-01-28T02:32:52.078Z,102826.25
2023-01-28T02:35:27.919Z,102821.88
2023-01-28T02:38:03.158Z,102821.91
2023-01-28T02:40:34.354Z,102821.91
2023-01-28T02:43:00.942Z,102825.47
2023-01-28T02:45:52.134Z,102826.34
2023-01-28T02:48:23.384Z,102825.38
2023-01-28T02:51:15.459Z,102822.69
2023-01-28T02:53:59.965Z,102829.75
2023-01-28T02:56:32.714Z,102830.59
2023-01-28T02:59:27.576Z,102827.09
2023-01-28T03:02:12.467Z,102829.84
2023-01-28T03:04:49.530Z,102826.38
2023-01-28T03:07:19.881Z,102829.06
2023-01-28T03:09:48.703Z,102828.19
2023-01-28T03:12:44.879Z,102836.16
2023-01-28T03:15:44.126Z,102828.00
2023-01-28T03:18:35.529Z,102828.81
2023-01-28T03:21:34.657Z,102834.16
2023-01-28T03:24:42.152Z,102837.75
2023-01-28T03:27:37.436Z,102826.09
2023-01-28T03:30:46.161Z,102828.75
2023-01-28T03:33:41.921Z,102825.28
2023-01-28T03:36:28.132Z,102833.34
2023-01-28T03:38:54.944Z,102837.00
2023-01-28T03:41:24.225Z,102832.56
2023-01-28T03:43:53.535Z,102839.75
2023-01-28T03:46:20.316Z,102839.75
2023-01-28T03:48:47.032Z,102838.88
2023-01-28T03:51:15.533Z,102831.72
2023-01-28T03:53:42.111Z,102830.81
2023-01-28T03:56:10.785Z,102838.78
2023-01-28T03:58:56.701Z,102829.00
2023-01-28T04:01:24.520Z,102839.75
2023-01-28T04:03:51.472Z,102842.41
2023-01-28T04:06:24.076Z,102846.00
2023-01-28T04:08:59.539Z,102847.88
2023-01-28T04:11:31.828Z,102860.44
2023-01-28T04:14:01.610Z,102857.81
2023-01-28T04:16:39.141Z,102855.22
2023-01-28T04:19:06.350Z,102857.06
2023-01-28T04:21:36.158Z,102857.13
2023-01-28T04:24:04.679Z,102860.69
2023-01-28T04:26:35.606Z,102855.34
2023-01-28T04:29:02.871Z,102858.91
2023-01-28T04:31:31.100Z,102857.13
2023-01-28T04:34:17.750Z,102854.44
2023-01-28T04:37:02.828Z,102857.09
2023-01-28T04:39:43.297Z,102846.50
2023-01-28T04:42:30.225Z,102852.81
2023-01-28T04:45:11.089Z,102852.00
2023-01-28T04:47:57.766Z,102854.72
2023-01-28T04:50:37.837Z,102860.06
2023-01-28T04:53:14.369Z,102856.56
2023-01-28T04:56:01.937Z,102860.16
2023-01-28T04:58:31.657Z,102863.75
2023-01-28T05:01:02.616Z,102873.50
2023-01-28T05:03:30.134Z,102870.84
2023-01-28T05:05:58.393Z,102864.53
2023-01-28T05:08:39.690Z,102866.25
2023-01-28T05:11:06.380Z,102857.38
2023-01-28T05:13:33.400Z,102860.06
2023-01-28T05:16:00.342Z,102869.13
2023-01-28T05:18:27.179Z,102865.66
2023-01-28T05:21:04.842Z,102869.31
2023-01-28T05:23:33.831Z,102871.13
2023-01-28T05:26:00.917Z,102864.06
2023-01-28T05:28:27.640Z,102866.78
2023-01-28T05:30:54.261Z,102871.28
2023-01-28T05:33:20.915Z,102855.28
2023-01-28T05:35:49.564Z,102857.97
2023-01-28T05:38:19.886Z,102852.66
2023-01-28T05:40:47.961Z,102850.88
2023-01-28T05:43:15.170Z,102848.16
2023-01-28T05:45:51.626Z,102858.78
2023-01-28T05:48:26.709Z,102863.19
2023-01-28T05:51:11.685Z,102859.56
2023-01-28T05:53:42.017Z,102856.09
2023-01-28T05:56:08.640Z,102864.16
2023-01-28T05:58:36.800Z,102861.50
2023-01-28T06:01:03.974Z,102866.00
2023-01-28T06:03:45.699Z,102872.22
2023-01-28T06:06:12.431Z,102871.38
2023-01-28T06:08:39.014Z,102874.09
2023-01-28T06:11:05.626Z,102879.44
2023-01-28T06:13:34.232Z,102872.34
2023-01-28T06:16:21.073Z,102883.00
2023-01-28T06:19:09.023Z,102877.69
2023-01-28T06:21:35.782Z,102868.75
2023-01-28T06:24:02.718Z,102873.22
2023-01-28T06:26:30.512Z,102869.63
2023-01-28T06:28:57.143Z,102874.97
2023-01-28T06:31:23.645Z,102881.19
2023-01-28T06:33:50.175Z,102875.88
2023-01-28T06:36:16.770Z,102875.94
2023-01-28T06:38:43.411Z,102876.88
2023-01-28T06:41:10.161Z,102878.66
2023-01-28T06:43:36.785Z,102882.25
2023-01-28T06:46:03.610Z,102887.63
2023-01-28T06:48:30.575Z,102880.59
2023-01-28T06:50:57.140Z,102885.94
2023-01-28T06:53:23.735Z,102885.06
2023-01-28T06:55:50.439Z,102895.75
2023-01-28T06:58:17.446Z,102891.28
2023-01-28T07:00:44.033Z,102885.00
2023-01-28T07:03:10.654Z,102890.31
2023-01-28T07:05:37.270Z,102892.97
2023-01-28T07:08:03.880Z,102891.25
2023-01-28T07:10:30.617Z,102902.84
2023-01-28T07:12:57.367Z,102899.34
2023-01-28T07:15:23.928Z,102903.78
2023-01-28T07:17:50.472Z,102907.34
2023-01-28T07:20:18.037Z,102914.53
2023-01-28T07:22:45.518Z,102911.03
2023-01-28T07:25:13.437Z,102913.72
2023-01-28T07:27:40.511Z,102918.19
2023-01-28T07:30:07.741Z,102924.44
2023-01-28T07:32:34.227Z,102928.91
2023-01-28T07:35:00.703Z,102928.97
2023-01-28T07:37:27.332Z,102931.59
2023-01-28T07:39:53.922Z,102933.44
2023-01-28T07:42:20.381Z,102937.94
2023-01-28T07:44:47.404Z,102937.13
2023-01-28T07:47:14.047Z,102938.09
2023-01-28T07:49:41.008Z,102939.03
2023-01-28T07:52:12.722Z,102944.38
2023-01-28T07:54:39.305Z,102936.38
2023-01-28T07:57:09.951Z,102937.25
2023-01-28T07:59:36.746Z,102945.28
2023-01-28T08:02:03.420Z,102947.94
2023-01-28T08:04:30.207Z,102947.97
2023-01-28T08:06:57.349Z,102952.41
2023-01-28T08:09:23.873Z,102954.13
2023-01-28T08:11:55.462Z,102950.53
2023-01-28T08:14:22.325Z,102940.75
2023-01-28T08:16:48.892Z,102944.28
2023-01-28T08:19:16.127Z,102951.44
2023-01-28T08:21:42.703Z,102959.41
2023-01-28T08:24:09.761Z,102962.03
2023-01-28T08:26:36.335Z,102976.25
2023-01-28T08:29:02.867Z,102978.88
2023-01-28T08:31:38.485Z,102976.22
2023-01-28T08:34:08.059Z,102982.38
2023-01-28T08:36:38.214Z,102986.78
2023-01-28T08:39:05.968Z,102986.78
2023-01-28T08:41:32.610Z,102985.88
2023-01-28T08:44:00.332Z,102984.09
2023-01-28T08:46:27.070Z,102989.44
2023-01-28T08:48:53.599Z,102982.28
2023-01-28T08:51:20.168Z,102984.94
2023-01-28T08:53:46.728Z,102995.63
2023-01-28T08:56:14.544Z,102991.13
2023-01-28T08:58:41.675Z,102984.88
2023-01-28T09:01:08.197Z,102999.97
2023-01-28T09:03:36.138Z,103005.31
2023-01-28T09:06:04.632Z,103008.88
2023-01-28T09:08:31.633Z,103016.88
2023-01-28T09:10:58.920Z,103003.53
2023-01-28T09:13:25.908Z,103015.06
2023-01-28T09:15:52.630Z,103016.81
2023-01-28T09:18:19.238Z,103023.00
2023-01-28T09:20:46.202Z,103018.53
2023-01-28T09:23:13.106Z,103029.19
2023-01-28T09:25:39.963Z,103026.47
2023-01-28T09:28:06.954Z,103026.41
2023-01-28T09:30:37.081Z,103024.63
2023-01-28T09:33:04.211Z,103015.72
2023-01-28T09:35:31.065Z,103028.19
2023-01-28T09:37:59.057Z,103025.63
2023-01-28T09:40:51.704Z,103032.81
2023-01-28T09:43:42.335Z,103023.91
2023-01-28T09:46:13.380Z,103030.16
2023-01-28T09:49:02.170Z,103035.47
2023-01-28T09:51:32.056Z,103031.00
2023-01-28T09:54:04.682Z,103035.41
2023-01-28T09:56:41.370Z,103048.78
2023-01-28T09:59:21.367Z,103045.28
2023-01-28T10:01:58.527Z,103051.50
2023-01-28T10:04:43.932Z,103044.44
2023-01-28T10:07:22.847Z,103057.78
2023-01-28T10:10:01.855Z,103058.72
2023-01-28T10:12:50.284Z,103052.50
2023-01-28T10:15:53.901Z,103062.34
2023-01-28T10:18:36.097Z,103062.34
2023-01-28T10:21:13.118Z,103058.78
2023-01-28T10:23:48.786Z,103063.22
2023-01-28T10:26:22.861Z,103064.94
2023-01-28T10:28:56.976Z,103064.94
2023-01-28T10:31:31.645Z,103060.47
2023-01-28T10:33:59.012Z,103059.50
2023-01-28T10:36:25.605Z,103057.69
2023-01-28T10:38:52.089Z,103053.25
2023-01-28T10:41:22.349Z,103050.59
2023-01-28T10:43:50.327Z,103060.41
2023-01-28T10:46:29.918Z,103055.97
2023-01-28T10:49:14.975Z,103052.38
2023-01-28T10:51:43.180Z,103052.38
2023-01-28T10:54:20.477Z,103057.72
2023-01-28T10:56:49.110Z,103046.19
2023-01-28T10:59:27.894Z,103056.03
2023-01-28T11:01:59.796Z,103040.00
2023-01-28T11:04:31.971Z,103050.69
2023-01-28T11:07:04.652Z,103050.69
2023-01-28T11:09:38.375Z,103049.78
2023-01-28T11:12:13.738Z,103041.75
2023-01-28T11:14:49.434Z,103039.94
2023-01-28T11:17:18.337Z,103032.78
2023-01-28T11:19:45.376Z,103029.19
2023-01-28T11:22:21.723Z,103022.06
2023-01-28T11:24:48.298Z,103019.34
2023-01-28T11:27:28.968Z,103014.81
2023-01-28T11:29:58.321Z,103009.38
2023-01-28T11:32:26.778Z,103006.56
2023-01-28T11:34:57.455Z,103001.97
2023-01-28T11:37:26.178Z,103005.41
2023-01-28T11:40:02.933Z,102996.41
2023-01-28T11:42:30.831Z,102997.19
2023-01-28T11:44:57.391Z,102999.78
2023-01-28T11:47:53.843Z,102998.00
2023-01-28T11:50:26.997Z,102991.63
2023-01-28T11:53:06.240Z,102974.59
2023-01-28T11:55:51.958Z,102970.88
2023-01-28T11:58:46.482Z,102954.78
2023-01-28T12:01:39.906Z,102945.78
2023-01-28T12:04:17.719Z,102934.16
2023-01-28T12:06:47.306Z,102915.44
2023-01-28T12:09:20.078Z,102904.75
2023-01-28T12:12:11.402Z,102900.22
2023-01-28T12:15:15.306Z,102918.91
2023-01-28T12:18:06.195Z,102912.56
2023-01-28T12:20:47.338Z,102917.84
2023-01-28T12:23:33.031Z,102908.94
2023-01-28T12:26:39.190Z,102920.53
2023-01-28T12:29:27.278Z,102935.44
2023-01-28T12:32:22.021Z,102922.72
2023-01-28T12:34:48.423Z,102937.59
2023-01-28T12:37:28.068Z,102942.75
2023-01-28T12:40:03.337Z,102940.63
2023-01-28T12:42:39.468Z,102947.44
2023-01-28T12:45:24.519Z,102938.25
2023-01-28T12:47:58.937Z,102939.78
2023-01-28T12:50:36.583Z,102950.28
2023-01-28T12:53:17.139Z,102950.22
2023-01-28T12:55:48.581Z,102947.50
2023-01-28T12:58:35.379Z,102949.31
2023-01-28T13:01:07.637Z,102951.00
2023-01-28T13:04:12.386Z,102948.34
2023-01-28T13:06:48.383Z,102950.09
2023-01-28T13:09:21.052Z,102950.00
2023-01-28T13:11:51.872Z,102949.97
2023-01-28T13:14:23.886Z,102939.28
2023-01-28T13:16:50.471Z,102942.97
2023-01-28T13:19:19.690Z,102938.59
2023-01-28T13:21:49.582Z,102940.47
2023-01-28T13:24:16.354Z,102937.00
2023-01-28T13:26:44.862Z,102940.53
2023-01-28T13:29:14.166Z,102936.00
2023-01-28T13:31:48.714Z,102925.16
2023-01-28T13:34:43.562Z,102927.56
2023-01-28T13:37:29.646Z,102921.09
2023-01-28T13:40:03.045Z,102916.47
2023-01-28T13:42:30.915Z,102911.78
2023-01-28T13:45:20.587Z,102901.75
2023-01-28T13:47:51.328Z,102893.50
2023-01-28T13:50:31.551Z,102891.75
2023-01-28T13:53:03.947Z,102889.03
2023-01-28T13:55:44.686Z,102881.81
2023-01-28T13:58:43.592Z,102866.41
2023-01-28T14:01:21.415Z,102852.69
2023-01-28T14:04:18.493Z,102840.06
2023-01-28T14:07:23.447Z,102849.72
2023-01-28T14:10:00.995Z,102836.41
2023-01-28T14:12:30.510Z,102848.88
2023-01-28T14:15:24.752Z,102860.63
2023-01-28T14:17:53.897Z,102866.09
2023-01-28T14:20:23.713Z,102878.78
2023-01-28T14:23:01.243Z,102887.75
2023-01-28T14:25:38.149Z,102890.53
2023-01-28T14:28:07.547Z,102892.31
2023-01-28T14:31:05.205Z,102892.44
2023-01-28T14:33:32.866Z,102897.84
2023-01-28T14:35:59.408Z,102886.34
2023-01-28T14:38:25.982Z,102887.28
2023-01-28T14:40:54.446Z,102895.31
2023-01-28T14:43:27.095Z,102898.00
2023-01-28T14:46:11.891Z,102906.13
2023-01-28T14:48:38.433Z,102907.06
2023-01-28T14:51:34.161Z,102906.31
2023-01-28T14:54:12.920Z,102906.38
2023-01-28T14:57:11.438Z,102911.88
2023-01-28T14:59:54.459Z,102908.34
2023-01-28T15:02:29.541Z,102918.25
2023-01-28T15:05:08.135Z,102911.19
2023-01-28T15:07:34.649Z,102908.53
2023-01-28T15:10:02.299Z,102901.44
2023-01-28T15:12:30.278Z,102905.03
2023-01-28T15:14:56.803Z,102894.31
2023-01-28T15:17:28.182Z,102899.78
2023-01-28T15:19:57.203Z,102898.94
2023-01-28T15:22:28.767Z,102899.91
2023-01-28T15:24:56.200Z,102898.19
2023-01-28T15:27:29.955Z,102906.28
2023-01-28T15:29:59.645Z,102916.25
2023-01-28T15:32:29.307Z,102921.75
2023-01-28T15:34:56.716Z,102930.75
2023-01-28T15:37:23.280Z,102931.75
2023-01-28T15:40:00.720Z,102940.81
2023-01-28T15:42:29.391Z,102945.38
2023-01-28T15:44:59.575Z,102958.00
2023-01-28T15:47:33.363Z,102950.09
2023-01-28T15:50:04.645Z,102956.41
2023-01-28T15:52:35.954Z,102958.34
2023-01-28T15:55:04.128Z,102963.81
2023-01-28T15:57:34.212Z,102971.06
2023-01-28T16:00:06.618Z,102976.56
2023-01-28T16:02:47.282Z,102966.91
2023-01-28T16:05:36.142Z,102967.03
2023-01-28T16:08:07.613Z,102967.06
2023-01-28T16:10:34.567Z,102956.47
2023-01-28T16:13:10.027Z,102961.19
2023-01-28T16:15:38.406Z,102964.13
2023-01-28T16:18:06.488Z,102947.44
2023-01-28T16:20:33.523Z,102955.81
2023-01-28T16:23:04.330Z,102947.16
2023-01-28T16:25:36.968Z,102935.81
2023-01-28T16:28:13.582Z,102933.34
2023-01-28T16:30:40.423Z,102941.66
2023-01-28T16:33:20.561Z,102956.03
2023-01-28T16:36:04.572Z,102965.06
2023-01-28T16:38:33.911Z,102968.72
2023-01-28T16:41:00.664Z,102974.16
2023-01-28T16:43:27.174Z,102968.91
2023-01-28T16:45:53.752Z,102972.69
2023-01-28T16:48:20.276Z,102964.91
2023-01-28T16:50:46.969Z,102955.22
2023-01-28T16:53:20.675Z,102966.00
2023-01-28T16:55:50.108Z,102966.88
2023-01-28T16:58:22.095Z,102961.56
2023-01-28T17:00:48.709Z,102965.13
2023-01-28T17:03:15.271Z,102960.72
2023-01-28T17:05:41.896Z,102968.81
2023-01-28T17:08:08.937Z,102968.91
2023-01-28T17:10:35.487Z,102947.69
2023-01-28T17:13:02.091Z,102960.38
2023-01-28T17:15:28.670Z,102951.66
2023-01-28T17:17:55.441Z,102947.41
2023-01-28T17:20:22.319Z,102958.16
2023-01-28T17:22:48.804Z,102962.59
2023-01-28T17:25:15.660Z,102956.41
2023-01-28T17:27:42.316Z,102963.50
2023-01-28T17:30:09.706Z,102973.31
2023-01-28T17:32:36.283Z,102968.88
2023-01-28T17:35:02.764Z,102968.88
2023-01-28T17:37:29.242Z,102976.03
2023-01-28T17:39:55.713Z,102960.97
2023-01-28T17:42:22.221Z,102961.03
2023-01-28T17:44:48.755Z,102966.47
2023-01-28T17:47:15.370Z,102972.72
2023-01-28T17:49:41.923Z,102976.34
2023-01-28T17:52:08.530Z,102978.16
2023-01-28T17:54:36.171Z,102973.75
2023-01-28T17:57:02.781Z,102980.97
2023-01-28T17:59:29.308Z,102985.44
2023-01-28T18:01:57.225Z,102991.72
2023-01-28T18:04:25.209Z,102994.47
2023-01-28T18:06:51.819Z,102996.38
2023-01-28T18:09:19.115Z,102990.25
2023-01-28T18:11:45.656Z,103004.50
2023-01-28T18:14:12.175Z,103004.53
2023-01-28T18:16:38.751Z,103009.84
2023-01-28T18:19:06.313Z,103013.41
2023-01-28T18:21:51.188Z,103024.94
2023-01-28T18:24:18.833Z,103028.53
2023-01-28T18:26:45.407Z,103024.13
2023-01-28T18:29:16.681Z,103029.50
2023-01-28T18:31:43.655Z,103037.50
2023-01-28T18:34:10.158Z,103023.31
2023-01-28T18:36:36.689Z,103026.03
2023-01-28T18:39:03.197Z,103027.81
2023-01-28T18:41:29.709Z,103036.72
2023-01-28T18:43:56.427Z,103032.38
2023-01-28T18:46:23.049Z,103029.72
2023-01-28T18:48:49.682Z,103030.66
2023-01-28T18:51:28.920Z,103032.41
2023-01-28T18:54:01.854Z,103035.97
2023-01-28T18:56:30.524Z,103028.91
2023-01-28T18:59:03.342Z,103042.25
2023-01-28T19:01:31.661Z,103042.28
2023-01-28T19:03:59.586Z,103038.72
2023-01-28T19:06:28.069Z,103034.28
2023-01-28T19:08:58.465Z,103021.00
2023-01-28T19:11:27.286Z,103015.66
2023-01-28T19:13:54.048Z,103026.31
2023-01-28T19:16:21.743Z,103022.78
2023-01-28T19:18:57.351Z,103025.47
2023-01-28T19:21:25.044Z,103033.47
2023-01-28T19:24:12.173Z,103036.13
2023-01-28T19:26:38.755Z,103042.34
2023-01-28T19:29:10.290Z,103042.34
2023-01-28T19:31:38.427Z,103036.13
2023-01-28T19:34:05.690Z,103045.91
2023-01-28T19:36:33.911Z,103046.81
2023-01-28T19:39:02.754Z,103045.06
2023-01-28T19:41:30.220Z,103038.88
2023-01-28T19:43:57.445Z,103036.28
2023-01-28T19:46:24.769Z,103044.31
2023-01-28T19:48:51.870Z,103034.59
2023-01-28T19:51:18.899Z,103038.19
2023-01-28T19:53:46.023Z,103039.16
2023-01-28T19:56:14.854Z,103041.88
2023-01-28T19:58:43.579Z,103044.53
2023-01-28T20:01:19.880Z,103044.53
2023-01-28T20:03:50.864Z,103033.91
2023-01-28T20:06:17.743Z,103032.09
2023-01-28T20:08:45.082Z,103023.25
2023-01-28T20:11:14.093Z,103025.88
2023-01-28T20:13:42.719Z,103024.13
2023-01-28T20:16:31.032Z,103024.13
2023-01-28T20:19:02.817Z,103023.22
2023-01-28T20:21:30.664Z,103023.22
2023-01-28T20:23:59.018Z,103019.69
2023-01-28T20:26:31.215Z,103018.81
2023-01-28T20:29:01.603Z,103026.81
2023-01-28T20:31:28.387Z,103021.50
2023-01-28T20:33:55.066Z,103025.09
2023-01-28T20:36:21.679Z,103033.94
2023-01-28T20:38:48.666Z,103035.72
2023-01-28T20:41:20.129Z,103036.59
2023-01-28T20:43:47.695Z,103020.59
2023-01-28T20:46:16.860Z,103025.88
2023-01-28T20:48:43.923Z,103011.66
2023-01-28T20:51:14.408Z,103011.59
2023-01-28T20:53:41.729Z,103009.78
2023-01-28T20:56:09.888Z,103007.13
2023-01-28T20:58:36.703Z,103002.75
2023-01-28T21:01:03.743Z,103003.66
2023-01-28T21:03:30.688Z,103003.66
2023-01-28T21:05:57.258Z,102999.22
2023-01-28T21:08:23.915Z,103000.94
2023-01-28T21:10:50.611Z,103002.66
2023-01-28T21:13:17.574Z,102999.06
2023-01-28T21:15:55.581Z,102995.50
2023-01-28T21:18:22.882Z,102990.16
2023-01-28T21:20:50.509Z,102989.28
2023-01-28T21:23:17.207Z,103003.44
2023-01-28T21:25:47.043Z,102997.25
2023-01-28T21:28:14.090Z,102991.06
2023-01-28T21:30:40.613Z,102988.44
2023-01-28T21:33:07.249Z,102992.94
2023-01-28T21:35:41.141Z,102993.84
2023-01-28T21:38:08.084Z,102996.50
2023-01-28T21:40:35.630Z,102996.50
2023-01-28T21:43:02.968Z,102993.84
2023-01-28T21:45:30.075Z,102992.13
2023-01-28T21:47:56.713Z,102995.75
2023-01-28T21:50:23.942Z,102999.31
2023-01-28T21:52:51.266Z,102996.66
2023-01-28T21:55:18.667Z,103004.66
2023-01-28T21:57:45.400Z,103009.09
2023-01-28T22:00:13.119Z,103010.00
2023-01-28T22:02:40.502Z,103008.28
2023-01-28T22:05:07.555Z,103010.09
2023-01-28T22:07:43.425Z,103013.72
2023-01-28T22:10:10.848Z,103014.59
2023-01-28T22:12:37.399Z,103014.63
2023-01-28T22:15:06.752Z,103024.38
2023-01-28T22:17:33.239Z,103015.53
2023-01-28T22:20:00.819Z,103005.78
2023-01-28T22:22:27.370Z,103003.16
2023-01-28T22:24:53.831Z,102997.88
2023-01-28T22:27:20.372Z,102999.66
2023-01-28T22:29:46.951Z,102991.69
2023-01-28T22:32:13.616Z,102989.91
2023-01-28T22:34:40.218Z,102990.81
2023-01-28T22:37:07.193Z,103000.59
2023-01-28T22:39:33.754Z,102996.16
2023-01-28T22:42:00.352Z,102992.59
2023-01-28T22:44:26.949Z,102985.53
2023-01-28T22:46:53.502Z,102993.50
2023-01-28T22:49:21.988Z,102992.59
2023-01-28T22:51:48.464Z,102997.03
2023-01-28T22:54:15.245Z,102995.25
2023-01-28T22:56:41.975Z,102994.31
2023-01-28T22:59:10.542Z,102994.31
2023-01-28T23:01:37.152Z,102989.91
2023-01-28T23:04:03.908Z,102987.25
2023-01-28T23:06:31.102Z,102981.03
2023-01-28T23:08:57.694Z,102973.03
2023-01-28T23:11:25.393Z,102971.22
2023-01-28T23:14:12.838Z,102965.88
2023-01-28T23:16:57.930Z,102959.66
2023-01-28T23:19:43.071Z,102954.31
2023-01-28T23:22:32.509Z,102954.28
2023-01-28T23:24:59.072Z,102945.44
2023-01-28T23:27:26.079Z,102949.03
2023-01-28T23:29:52.634Z,102952.66
2023-01-28T23:32:20.690Z,102946.50
2023-01-28T23:34:47.299Z,102945.63
2023-01-28T23:37:14.062Z,102947.38
2023-01-28T23:39:41.057Z,102942.94
2023-01-28T23:42:19.150Z,102953.59
2023-01-28T23:44:45.841Z,102956.25
2023-01-28T23:47:13.034Z,102951.84
2023-01-28T23:49:39.937Z,102951.84
2023-01-28T23:52:07.482Z,102952.75
2023-01-28T23:54:34.458Z,102953.59
2023-01-28T23:57:01.404Z,102955.34
2023-01-28T23:59:28.122Z,102950.03
